Terminal Aerodrome Forecast
Issued by NWS

Home | Current Version | Previous Version | Text Only | Print | Product List | Glossary On
Versions: 1 2 3 4 5 6 7 8 9 10 11 12 13 14 15
000
FTUS45 KTFX 031132
TAFLWT
TAF
KLWT 031132Z 0312/0412 23014KT P6SM OVC080
     FM031800 28022G35KT P6SM BKN080
     FM040000 25012KT P6SM SCT080 BKN150=

USA.gov is the U.S. government's official web portal to all federal, state and local government web resources and services.